Grandy, North Carolina
Current Conditions -  °F | °C
As of 7:35 PM on Monday 24 Nov 2014 (Local Time) from KONX Reporting Station
Overcast Overcast  
Wind Chill: 69°   Ceiling: 7000
Heat Index: 69°   Visibility: 10mi
Dew Point: 65°   Wind: 9mph
Humidity: 89%   Direction: 200°SSW
Pressure: 29.87"   Gusts: NA
Location:  36.24°N, 75.88°W
Report Text: KONX 250035Z AUTO 20008KT 10SM SCT008 BKN070 OVC100 21/19 A2987 RMK AO2 T02050186
Loading
Personal Weather Stations






























Interactive Weather Map New forecast layout! Learn more

10-Day Weather Forecast

Advertisements
Track Severe Weather on mobile